KELD

South Arkansas Regional at Goodwin Field Airport

El Dorado, Arkansas, USA
METAR KELD 190653Z AUTO 19003KT 10SM FEW055 M04/M07 A3037 RMK AO2 SLP286 T10441067
Observed Flight Rules
Jan-19 @ 06:53 UTC (23 minutes ago) Visual Flight Rules
Wind Visibility Clouds
190° at 3 knots 10 miles
  • Few at 5,500' AGL
Temperatures Readings
Current -4°C / 25°F
Dewpoint -7°C / 19°F
Humidity 80%
Altimeter 30.37" Hg
Pressure 1028.6 hPa
Elevation 81
METAR KELD 190653Z AUTO 19003KT 10SM FEW055 M04/M07 A3037 RMK AO2 SLP286 T10441067
Observed Flight Rules
Jan-19 @ 06:53 UTC
(23 minutes ago)
VFR
Wind Visibility
190° at 3 knots 10 miles
Clouds
  • Few at 5,500' AGL
Temperature Dewpoint
-4°C / 25°F -7°C / 19°F
Humidity Altimeter Pressure
80% 30.37" Hg 1028.6 hPa